Wichita Mid Continent Airport
KICT : now visible

Airfield :











YOU CAN JOIN US ON...

 
LOGIN :

Register | Disclaimer

   EN    FR    IT 

 









Legend :    VFR   Marginal VFR   IFR   Intensive IFR   Very Intensive IFR
Visi :
Ceiling :
>= 8 km
>= 3000ft
5 to 8 km
1000 to 3000 ft
1500m to 5 km
500 to 1000 ft
800 to 1500m
200 to 500 ft
< 800m
< 200 ft
Symbols :   Thunderstorms  Fog  Heavy snow  Heavy precipitations  Wind > 20 kt






- Airport Elevation : 1333 ft
- IATA code : ICT


KICT - Wichita Mid Continent

CURRENT METAR :
  • 071953Z 02012G19KT 10SM FEW090 SCT200 19/M03 A3041 RMK AO2 SLP292 T01891033

EXPIRED METARs :
  • 071853Z 01015G23KT 10SM FEW090 FEW110 SCT140 SCT180 18/M03 A3043 RMK AO2 SLP298 T01831028
  • 071753Z 05013KT 10SM SCT090 SCT110 SCT160 SCT200 18/M01 A3045 RMK AO2 SLP306 T01781011 10178 20100 57001
  • 071653Z 04017G22KT 10SM FEW085 SCT100 SCT130 SCT170 SCT220 17/00 A3045 RMK AO2 SLP305 T01670000

TAF KICT
Valid from the 07 at 20:00 until the 08 at 18:00 UTC


071936Z 0720/0818 02015G23KT P6SM SCT100
FM080100 04011KT P6SM SCT110
FM081400 12008KT P6SM BKN070
FM081700 15009KT P6SM BKN090
KZKC FIR / North America



MET'MAP, your aeronautical weather chart ! - Copyright ORBIFLY December 2007 - Disclaimer

ORBIFLY MET'MAP TEAM :

Programming & Development : Alexandra Zaïnal
Original concept : Baudouin d'Aumeries
Technical & hardware support : Manuel Goepfert
Assistance : Marc-Olivier Méhu




SOURCES & CREDITS :

   NOAA       Earth
Advisory